createdAt,value
2017-10-26T00:00:07.867Z,102013.72
2017-10-26T00:02:35.515Z,102008.29
2017-10-26T00:05:03.230Z,101994.66
2017-10-26T00:07:30.873Z,101998.55
2017-10-26T00:09:58.605Z,101999.26
2017-10-26T00:12:26.250Z,101992.44
2017-10-26T00:14:53.902Z,101991.05
2017-10-26T00:17:21.623Z,102014.41
2017-10-26T00:19:49.342Z,102014.28
2017-10-26T00:22:17.080Z,102011.93
2017-10-26T00:24:44.781Z,102014.84
2017-10-26T00:27:12.476Z,102009.56
2017-10-26T00:29:40.157Z,101999.12
2017-10-26T00:32:07.828Z,102002.75
2017-10-26T00:34:35.526Z,102011.66
2017-10-26T00:37:03.242Z,102020.59
2017-10-26T00:39:31.439Z,102034.77
2017-10-26T00:41:59.126Z,102034.77
2017-10-26T00:44:26.798Z,102041.03
2017-10-26T00:46:54.509Z,102025.44
2017-10-26T00:49:22.156Z,102027.11
2017-10-26T00:51:49.856Z,102031.28
2017-10-26T00:54:17.490Z,102034.33
2017-10-26T00:56:45.114Z,102047.27
2017-10-26T00:59:12.949Z,102034.48
2017-10-26T01:01:40.664Z,102029.17
2017-10-26T01:04:08.371Z,102031.27
2017-10-26T01:06:35.946Z,102022.34
2017-10-26T01:09:03.682Z,102026.93
2017-10-26T01:11:31.322Z,102025.00
2017-10-26T01:13:59.033Z,102034.06
2017-10-26T01:16:26.674Z,102031.96
2017-10-26T01:18:54.357Z,102029.05
2017-10-26T01:21:22.013Z,102024.17
2017-10-26T01:23:49.705Z,102019.04
2017-10-26T01:26:17.368Z,102017.52
2017-10-26T01:28:45.035Z,102021.81
2017-10-26T01:31:12.703Z,102018.77
2017-10-26T01:33:40.397Z,102022.23
2017-10-26T01:36:08.048Z,102025.61
2017-10-26T01:38:35.779Z,102020.86
2017-10-26T01:41:03.471Z,102021.27
2017-10-26T01:43:31.148Z,102022.11
2017-10-26T01:45:58.802Z,102013.89
2017-10-26T01:48:26.505Z,102016.23
2017-10-26T01:50:54.176Z,102019.30
2017-10-26T01:53:21.870Z,102021.36
2017-10-26T01:55:49.554Z,102022.06
2017-10-26T01:58:17.307Z,102020.80
2017-10-26T02:00:44.955Z,102030.55
2017-10-26T02:03:12.655Z,102036.24
2017-10-26T02:05:40.340Z,102032.78
2017-10-26T02:08:08.087Z,102027.77
2017-10-26T02:10:35.745Z,102030.01
2017-10-26T02:13:03.434Z,102033.34
2017-10-26T02:15:31.120Z,102036.42
2017-10-26T02:17:58.788Z,102028.50
2017-10-26T02:20:26.474Z,102031.55
2017-10-26T02:22:54.188Z,102022.94
2017-10-26T02:25:21.886Z,102021.13
2017-10-26T02:27:49.569Z,102009.58
2017-10-26T02:30:29.012Z,102021.27
2017-10-26T02:32:56.654Z,102023.50
2017-10-26T02:35:24.354Z,102020.84
2017-10-26T02:37:52.008Z,102023.80
2017-10-26T02:40:19.724Z,102018.48
2017-10-26T02:42:47.377Z,102022.95
2017-10-26T02:45:15.082Z,102026.83
2017-10-26T02:47:42.737Z,102024.03
2017-10-26T02:50:10.439Z,102021.81
2017-10-26T02:52:38.103Z,102021.80
2017-10-26T02:55:05.822Z,102013.61
2017-10-26T02:57:33.473Z,102007.62
2017-10-26T03:00:01.159Z,102001.45
2017-10-26T03:02:28.822Z,101999.92
2017-10-26T03:04:56.518Z,102005.48
2017-10-26T03:07:24.163Z,102015.52
2017-10-26T03:09:51.880Z,102020.25
2017-10-26T03:12:19.551Z,102032.22
2017-10-26T03:14:47.195Z,102027.20
2017-10-26T03:17:14.878Z,102026.36
2017-10-26T03:19:42.536Z,102029.56
2017-10-26T03:22:10.207Z,102019.70
2017-10-26T03:24:37.859Z,102016.75
2017-10-26T03:27:05.549Z,102011.45
2017-10-26T03:29:33.203Z,102020.22
2017-10-26T03:32:00.887Z,102014.09
2017-10-26T03:34:28.514Z,102031.62
2017-10-26T03:36:56.221Z,102032.59
2017-10-26T03:39:23.912Z,102031.91
2017-10-26T03:41:51.614Z,102041.78
2017-10-26T03:44:19.266Z,102037.05
2017-10-26T03:46:46.970Z,102027.02
2017-10-26T03:49:14.616Z,102028.98
2017-10-26T03:51:42.292Z,102023.53
2017-10-26T03:54:09.953Z,102023.53
2017-10-26T03:56:37.629Z,102018.64
2017-10-26T03:59:05.340Z,102032.02
2017-10-26T04:01:33.020Z,102033.69
2017-10-26T04:04:00.734Z,102031.73
2017-10-26T04:06:28.426Z,102019.59
2017-10-26T04:08:56.149Z,102024.88
2017-10-26T04:11:23.956Z,102011.38
2017-10-26T04:13:51.698Z,102009.02
2017-10-26T04:16:19.360Z,102018.17
2017-10-26T04:18:47.065Z,102021.67
2017-10-26T04:21:14.780Z,102023.33
2017-10-26T04:23:42.502Z,102027.80
2017-10-26T04:26:10.178Z,102026.97
2017-10-26T04:28:37.913Z,102024.72
2017-10-26T04:31:05.594Z,102020.70
2017-10-26T04:33:33.353Z,102015.25
2017-10-26T04:36:01.042Z,102007.88
2017-10-26T04:38:28.790Z,102009.59
2017-10-26T04:40:56.512Z,102018.06
2017-10-26T04:43:24.241Z,102014.59
2017-10-26T04:45:51.902Z,102004.14
2017-10-26T04:48:19.658Z,101998.57
2017-10-26T04:50:47.313Z,102002.46
2017-10-26T04:53:14.975Z,102000.50
2017-10-26T04:55:42.656Z,101989.91
2017-10-26T04:58:10.328Z,102000.09
2017-10-26T05:00:38.013Z,102002.61
2017-10-26T05:03:05.712Z,101986.44
2017-10-26T05:05:33.420Z,101976.83
2017-10-26T05:08:01.077Z,101978.96
2017-10-26T05:10:28.792Z,101989.80
2017-10-26T05:12:56.441Z,101998.69
2017-10-26T05:15:24.133Z,101998.00
2017-10-26T05:17:51.770Z,102005.52
2017-10-26T05:20:19.516Z,101985.61
2017-10-26T05:22:47.183Z,101989.37
2017-10-26T05:25:14.875Z,101982.41
2017-10-26T05:27:42.549Z,101989.37
2017-10-26T05:30:10.274Z,101994.80
2017-10-26T05:32:38.806Z,101982.94
2017-10-26T05:35:06.543Z,101994.23
2017-10-26T05:37:34.200Z,101992.96
2017-10-26T05:40:01.915Z,101994.48
2017-10-26T05:42:29.614Z,102001.56
2017-10-26T05:44:57.268Z,102007.97
2017-10-26T05:47:25.017Z,102010.91
2017-10-26T05:49:52.678Z,102006.55
2017-10-26T05:52:20.392Z,102015.86
2017-10-26T05:54:48.110Z,102014.62
2017-10-26T05:57:15.800Z,102011.67
2017-10-26T05:59:43.465Z,102015.16
2017-10-26T06:02:11.160Z,102009.30
2017-10-26T06:04:38.837Z,102009.16
2017-10-26T06:07:06.535Z,102010.67
2017-10-26T06:09:34.214Z,102003.69
2017-10-26T06:12:01.833Z,102005.50
2017-10-26T06:14:29.498Z,102004.39
2017-10-26T06:16:57.208Z,101999.08
2017-10-26T06:19:24.864Z,101977.91
2017-10-26T06:21:52.609Z,101967.46
2017-10-26T06:24:20.273Z,101983.34
2017-10-26T06:26:47.958Z,101989.33
2017-10-26T06:29:15.688Z,101986.53
2017-10-26T06:31:43.373Z,101993.48
2017-10-26T06:34:11.048Z,101997.95
2017-10-26T06:36:38.707Z,101991.55
2017-10-26T06:39:06.450Z,101990.41
2017-10-26T06:41:34.104Z,101998.49
2017-10-26T06:44:01.804Z,101995.41
2017-10-26T06:46:29.515Z,102013.36
2017-10-26T06:48:57.228Z,102020.03
2017-10-26T06:51:24.905Z,102000.80
2017-10-26T06:53:52.606Z,101998.66
2017-10-26T06:56:20.303Z,102003.55
2017-10-26T06:58:47.982Z,101986.11
2017-10-26T07:01:15.634Z,101983.60
2017-10-26T07:03:43.325Z,101983.47
2017-10-26T07:06:10.992Z,101979.80
2017-10-26T07:08:38.694Z,102005.84
2017-10-26T07:11:06.342Z,102014.44
2017-10-26T07:13:34.042Z,102011.50
2017-10-26T07:16:01.697Z,102016.61
2017-10-26T07:18:29.388Z,102012.53
2017-10-26T07:20:57.042Z,102002.04
2017-10-26T07:23:24.754Z,102004.22
2017-10-26T07:25:52.406Z,102013.13
2017-10-26T07:28:20.110Z,102006.25
2017-10-26T07:30:47.800Z,102001.20
2017-10-26T07:33:15.438Z,101988.08
2017-10-26T07:35:43.080Z,101987.08
2017-10-26T07:38:10.747Z,101994.45
2017-10-26T07:40:38.494Z,101996.80
2017-10-26T07:43:06.168Z,101998.72
2017-10-26T07:45:33.867Z,101997.13
2017-10-26T07:48:01.523Z,101995.97
2017-10-26T07:50:29.216Z,101995.90
2017-10-26T07:52:56.870Z,101996.05
2017-10-26T07:55:24.578Z,101988.40
2017-10-26T07:57:52.268Z,101998.00
2017-10-26T08:00:19.942Z,101995.88
2017-10-26T08:02:47.615Z,101990.77
2017-10-26T08:05:15.266Z,101989.48
2017-10-26T08:07:42.936Z,101988.00
2017-10-26T08:10:10.629Z,101986.27
2017-10-26T08:12:38.249Z,101986.76
2017-10-26T08:15:05.889Z,102001.46
2017-10-26T08:17:33.603Z,102000.17
2017-10-26T08:20:01.256Z,102003.01
2017-10-26T08:22:28.844Z,102004.34
2017-10-26T08:24:56.542Z,102005.70
2017-10-26T08:27:24.220Z,101999.34
2017-10-26T08:29:51.923Z,101984.82
2017-10-26T08:32:19.588Z,101981.81
2017-10-26T08:34:47.257Z,101980.77
2017-10-26T08:37:19.179Z,101986.28
2017-10-26T08:39:47.412Z,101987.51
2017-10-26T08:42:19.941Z,101983.03
2017-10-26T08:44:47.550Z,101985.93
2017-10-26T08:47:15.202Z,101987.09
2017-10-26T08:49:49.989Z,101986.70
2017-10-26T08:52:18.216Z,101983.73
2017-10-26T08:54:45.861Z,101984.95
2017-10-26T08:57:13.518Z,101990.96
2017-10-26T08:59:41.208Z,101986.88
2017-10-26T09:04:58.273Z,101990.20
2017-10-26T09:07:33.336Z,101977.77
2017-10-26T09:10:01.413Z,101976.50
2017-10-26T09:12:29.090Z,101968.78
2017-10-26T09:14:56.732Z,101971.72
2017-10-26T09:17:24.386Z,101972.75
2017-10-26T09:19:51.997Z,101964.86
2017-10-26T09:22:19.742Z,101965.58
2017-10-26T09:24:48.311Z,101965.98
2017-10-26T09:27:16.058Z,101956.13
2017-10-26T09:29:43.741Z,101960.16
2017-10-26T09:32:11.487Z,101960.77
2017-10-26T09:34:39.189Z,101964.33
2017-10-26T09:37:06.896Z,101955.47
2017-10-26T09:39:34.620Z,101960.31
2017-10-26T09:42:02.298Z,101954.34
2017-10-26T09:44:30.002Z,101956.31
2017-10-26T09:46:57.669Z,101956.21
2017-10-26T09:49:25.312Z,101956.91
2017-10-26T09:51:52.983Z,101953.05
2017-10-26T09:54:20.737Z,101951.45
2017-10-26T09:56:48.407Z,101956.16
2017-10-26T09:59:16.106Z,101951.44
2017-10-26T10:01:43.778Z,101952.52
2017-10-26T10:04:11.510Z,101944.87
2017-10-26T10:06:39.230Z,101947.06
2017-10-26T10:09:06.995Z,101947.63
2017-10-26T10:11:34.587Z,101955.73
2017-10-26T10:14:02.220Z,101943.19
2017-10-26T10:16:29.822Z,101948.56
2017-10-26T10:18:57.534Z,101945.34
2017-10-26T10:21:25.220Z,101937.64
2017-10-26T10:23:52.962Z,101936.95
2017-10-26T10:26:20.669Z,101936.23
2017-10-26T10:28:48.420Z,101925.45
2017-10-26T10:31:16.102Z,101925.23
2017-10-26T10:33:43.857Z,101929.28
2017-10-26T10:36:11.497Z,101927.94
2017-10-26T10:38:39.217Z,101928.50
2017-10-26T10:41:07.006Z,101934.33
2017-10-26T10:43:34.729Z,101929.90
2017-10-26T10:46:02.376Z,101930.73
2017-10-26T10:48:30.066Z,101933.83
2017-10-26T10:50:57.773Z,101934.56
2017-10-26T10:53:25.443Z,101929.06
2017-10-26T10:55:53.158Z,101921.18
2017-10-26T10:58:20.853Z,101913.33
2017-10-26T11:00:48.556Z,101902.74
2017-10-26T11:03:16.172Z,101896.63
2017-10-26T11:05:43.811Z,101905.38
2017-10-26T11:08:11.426Z,101902.30
2017-10-26T11:10:39.115Z,101903.88
2017-10-26T11:13:06.756Z,101897.44
2017-10-26T11:15:34.401Z,101906.30
2017-10-26T11:18:02.019Z,101906.12
2017-10-26T11:20:29.659Z,101902.81
2017-10-26T11:22:57.289Z,101896.61
2017-10-26T11:25:25.024Z,101886.77
2017-10-26T11:27:52.695Z,101891.50
2017-10-26T11:30:20.390Z,101887.67
2017-10-26T11:32:48.051Z,101890.61
2017-10-26T11:35:15.757Z,101893.31
2017-10-26T11:37:43.397Z,101883.56
2017-10-26T11:40:11.091Z,101886.12
2017-10-26T11:42:39.803Z,101892.01
2017-10-26T11:45:07.473Z,101885.65
2017-10-26T11:47:35.230Z,101881.73
2017-10-26T11:50:02.903Z,101878.27
2017-10-26T11:52:30.626Z,101869.23
2017-10-26T11:54:58.307Z,101862.25
2017-10-26T11:57:26.036Z,101866.64
2017-10-26T11:59:53.752Z,101855.02
2017-10-26T12:02:21.462Z,101844.92
2017-10-26T12:04:49.144Z,101849.31
2017-10-26T12:07:16.867Z,101839.12
2017-10-26T12:09:44.549Z,101835.38
2017-10-26T12:12:12.259Z,101825.91
2017-10-26T12:14:39.962Z,101826.19
2017-10-26T12:17:07.662Z,101824.70
2017-10-26T12:19:35.335Z,101831.06
2017-10-26T12:22:03.058Z,101830.72
2017-10-26T12:24:30.731Z,101827.09
2017-10-26T12:26:58.385Z,101830.59
2017-10-26T12:29:26.051Z,101828.19
2017-10-26T12:31:53.661Z,101833.73
2017-10-26T12:34:21.362Z,101831.26
2017-10-26T12:36:48.999Z,101834.97
2017-10-26T12:39:16.724Z,101833.86
2017-10-26T12:41:44.357Z,101830.76
2017-10-26T12:44:12.060Z,101826.31
2017-10-26T12:46:39.754Z,101822.09
2017-10-26T12:49:07.484Z,101824.14
2017-10-26T12:51:35.216Z,101816.23
2017-10-26T12:54:02.975Z,101809.00
2017-10-26T12:56:30.733Z,101809.08
2017-10-26T12:58:58.876Z,101810.10
2017-10-26T13:01:26.622Z,101809.48
2017-10-26T13:03:54.451Z,101801.28
2017-10-26T13:06:22.159Z,101808.25
2017-10-26T13:08:49.996Z,101799.44
2017-10-26T13:11:17.751Z,101789.61
2017-10-26T13:13:45.555Z,101783.37
2017-10-26T13:16:13.342Z,101785.80
2017-10-26T13:18:41.020Z,101779.55
2017-10-26T13:21:08.804Z,101775.07
2017-10-26T13:23:36.474Z,101763.02
2017-10-26T13:26:04.189Z,101764.11
2017-10-26T13:28:31.857Z,101748.91
2017-10-26T13:30:59.569Z,101755.98
2017-10-26T13:33:27.224Z,101756.42
2017-10-26T13:35:54.919Z,101752.77
2017-10-26T13:38:22.536Z,101758.80
2017-10-26T13:40:50.178Z,101752.42
2017-10-26T13:43:17.873Z,101753.67
2017-10-26T13:45:45.563Z,101752.27
2017-10-26T13:48:13.207Z,101764.97
2017-10-26T13:50:40.920Z,101759.80
2017-10-26T13:53:08.585Z,101759.20
2017-10-26T13:55:36.976Z,101769.59
2017-10-26T13:58:04.656Z,101764.47
2017-10-26T14:00:32.363Z,101765.72
2017-10-26T14:03:00.077Z,101770.98
2017-10-26T14:05:27.782Z,101769.88
2017-10-26T14:07:55.452Z,101772.80
2017-10-26T14:10:23.189Z,101770.66
2017-10-26T14:12:50.877Z,101766.37
2017-10-26T14:15:18.517Z,101763.21
2017-10-26T14:17:46.213Z,101764.61
2017-10-26T14:20:13.869Z,101766.85
2017-10-26T14:22:41.569Z,101761.09
2017-10-26T14:25:09.227Z,101757.04
2017-10-26T14:27:40.808Z,101760.17
2017-10-26T14:30:12.104Z,101760.54
2017-10-26T14:32:39.726Z,101748.98
2017-10-26T14:35:07.376Z,101755.69
2017-10-26T14:37:35.091Z,101747.05
2017-10-26T14:40:02.795Z,101747.27
2017-10-26T14:42:31.637Z,101738.98
2017-10-26T14:45:00.689Z,101742.69
2017-10-26T14:47:28.503Z,101738.24
2017-10-26T14:49:56.253Z,101737.89
2017-10-26T14:52:23.986Z,101735.89
2017-10-26T14:54:51.654Z,101734.19
2017-10-26T14:57:19.305Z,101734.34
2017-10-26T14:59:46.968Z,101737.95
2017-10-26T15:02:14.701Z,101734.53
2017-10-26T15:04:42.282Z,101725.05
2017-10-26T15:07:09.973Z,101724.97
2017-10-26T15:09:37.662Z,101728.13
2017-10-26T15:12:13.483Z,101720.33
2017-10-26T15:14:43.204Z,101720.72
2017-10-26T15:17:23.015Z,101720.84
2017-10-26T15:19:58.575Z,101718.25
2017-10-26T15:22:33.402Z,101716.08
2017-10-26T15:30:50.188Z,101708.75
2017-10-26T15:33:28.966Z,101708.56
2017-10-26T15:36:07.363Z,101708.15
2017-10-26T15:38:35.043Z,101707.14
2017-10-26T15:43:41.875Z,101706.95
2017-10-26T15:46:10.147Z,101707.57
2017-10-26T15:48:38.118Z,101714.63
2017-10-26T15:51:11.347Z,101716.41
2017-10-26T15:53:44.812Z,101718.48
2017-10-26T15:56:24.076Z,101720.67
2017-10-26T15:58:51.978Z,101724.67
2017-10-26T16:01:19.599Z,101724.22
2017-10-26T16:03:47.280Z,101717.19
2017-10-26T16:06:14.907Z,101717.53
2017-10-26T16:08:48.973Z,101714.55
2017-10-26T16:14:01.340Z,101710.61
2017-10-26T16:16:40.613Z,101720.64
2017-10-26T16:22:05.982Z,101710.10
2017-10-26T16:24:40.654Z,101712.44
2017-10-26T16:27:17.142Z,101715.37
2017-10-26T16:29:59.762Z,101707.50
2017-10-26T16:32:33.355Z,101712.77
2017-10-26T16:35:06.464Z,101706.47
2017-10-26T16:37:34.867Z,101709.59
2017-10-26T16:40:02.555Z,101707.41
2017-10-26T16:42:30.177Z,101703.69
2017-10-26T16:44:57.857Z,101709.05
2017-10-26T16:47:25.590Z,101700.77
2017-10-26T16:49:53.251Z,101705.11
2017-10-26T16:52:20.960Z,101706.92
2017-10-26T16:54:48.575Z,101703.37
2017-10-26T16:57:16.264Z,101707.51
2017-10-26T16:59:43.916Z,101708.30
2017-10-26T17:02:11.640Z,101711.33
2017-10-26T17:04:39.678Z,101713.29
2017-10-26T17:07:07.398Z,101717.66
2017-10-26T17:09:35.054Z,101710.40
2017-10-26T17:12:02.761Z,101704.80
2017-10-26T17:14:30.412Z,101705.55
2017-10-26T17:16:58.102Z,101708.81
2017-10-26T17:19:25.758Z,101707.19
2017-10-26T17:21:53.454Z,101697.31
2017-10-26T17:24:21.109Z,101696.20
2017-10-26T17:26:48.795Z,101694.30
2017-10-26T17:29:16.465Z,101698.91
2017-10-26T17:31:44.158Z,101700.11
2017-10-26T17:34:16.603Z,101690.33
2017-10-26T17:36:44.234Z,101700.34
2017-10-26T17:39:20.051Z,101697.87
2017-10-26T17:41:55.244Z,101703.20
2017-10-26T17:44:22.847Z,101705.42
2017-10-26T17:46:50.768Z,101702.22
2017-10-26T17:49:18.525Z,101699.88
2017-10-26T17:51:46.185Z,101692.23
2017-10-26T17:54:13.875Z,101690.47
2017-10-26T17:56:41.540Z,101687.31
2017-10-26T17:59:09.259Z,101676.50
2017-10-26T18:01:36.912Z,101671.11
2017-10-26T18:04:04.581Z,101670.18
2017-10-26T18:06:32.226Z,101668.69
2017-10-26T18:08:59.846Z,101677.36
2017-10-26T18:11:27.451Z,101663.02
2017-10-26T18:13:55.182Z,101663.48
2017-10-26T18:16:22.834Z,101661.58
2017-10-26T18:18:50.513Z,101662.88
2017-10-26T18:21:18.192Z,101655.52
2017-10-26T18:23:45.956Z,101658.17
2017-10-26T18:26:14.114Z,101658.73
2017-10-26T18:28:41.814Z,101657.99
2017-10-26T18:31:09.458Z,101653.23
2017-10-26T18:33:37.109Z,101650.03
2017-10-26T18:36:04.722Z,101654.40
2017-10-26T18:38:32.378Z,101656.59
2017-10-26T18:40:59.977Z,101663.58
2017-10-26T18:43:28.637Z,101659.98
2017-10-26T18:45:56.266Z,101662.23
2017-10-26T18:48:23.926Z,101654.17
2017-10-26T18:50:51.586Z,101645.10
2017-10-26T18:53:19.256Z,101646.81
2017-10-26T18:55:46.922Z,101649.05
2017-10-26T18:58:14.680Z,101642.67
2017-10-26T19:00:42.496Z,101638.86
2017-10-26T19:03:10.145Z,101639.08
2017-10-26T19:05:37.789Z,101638.07
2017-10-26T19:08:05.403Z,101637.55
2017-10-26T19:10:33.104Z,101630.57
2017-10-26T19:13:00.701Z,101634.34
2017-10-26T19:15:28.417Z,101626.56
2017-10-26T19:17:56.005Z,101622.00
2017-10-26T19:20:23.771Z,101626.33
2017-10-26T19:22:51.372Z,101626.23
2017-10-26T19:25:19.012Z,101627.36
2017-10-26T19:27:46.620Z,101625.55
2017-10-26T19:30:14.353Z,101626.43
2017-10-26T19:32:41.963Z,101623.03
2017-10-26T19:35:09.694Z,101617.69
2017-10-26T19:37:37.347Z,101623.54
2017-10-26T19:40:05.105Z,101617.34
2017-10-26T19:42:32.737Z,101614.50
2017-10-26T19:45:00.351Z,101616.61
2017-10-26T19:47:27.973Z,101612.36
2017-10-26T19:49:55.638Z,101614.27
2017-10-26T19:52:23.267Z,101625.25
2017-10-26T19:54:50.927Z,101616.73
2017-10-26T19:57:18.573Z,101616.73
2017-10-26T19:59:46.236Z,101619.72
2017-10-26T20:02:13.915Z,101619.34
2017-10-26T20:04:41.609Z,101632.14
2017-10-26T20:07:09.268Z,101623.25
2017-10-26T20:09:36.851Z,101629.49
2017-10-26T20:12:04.481Z,101624.42
2017-10-26T20:14:32.074Z,101615.48
2017-10-26T20:16:59.688Z,101622.46
2017-10-26T20:19:27.322Z,101617.76
2017-10-26T20:21:55.019Z,101617.85
2017-10-26T20:24:22.606Z,101609.98
2017-10-26T20:26:50.263Z,101600.80
2017-10-26T20:29:24.443Z,101609.47
2017-10-26T20:31:52.062Z,101602.39
2017-10-26T20:34:19.686Z,101608.03
2017-10-26T20:36:47.287Z,101615.58
2017-10-26T20:39:14.927Z,101620.09
2017-10-26T20:41:42.511Z,101613.34
2017-10-26T20:44:10.122Z,101604.88
2017-10-26T20:46:37.726Z,101621.95
2017-10-26T20:49:11.047Z,101621.95
2017-10-26T20:51:44.362Z,101619.52
2017-10-26T20:54:17.439Z,101614.13
2017-10-26T20:56:50.525Z,101614.87
2017-10-26T20:59:23.756Z,101613.34
2017-10-26T21:01:58.219Z,101606.83
2017-10-26T21:04:31.250Z,101598.63
2017-10-26T21:06:59.532Z,101591.74
2017-10-26T21:09:27.155Z,101581.75
2017-10-26T21:12:00.323Z,101580.81
2017-10-26T21:14:28.806Z,101576.16
2017-10-26T21:16:56.395Z,101572.17
2017-10-26T21:19:24.027Z,101572.78
2017-10-26T21:21:51.675Z,101559.75
2017-10-26T21:24:19.315Z,101570.87
2017-10-26T21:26:46.970Z,101574.12
2017-10-26T21:29:14.595Z,101571.48
2017-10-26T21:31:42.177Z,101560.58
2017-10-26T21:34:09.808Z,101551.56
2017-10-26T21:36:37.398Z,101548.02
2017-10-26T21:39:05.116Z,101543.09
2017-10-26T21:41:32.793Z,101551.52
2017-10-26T21:44:00.446Z,101552.96
2017-10-26T21:46:28.082Z,101559.02
2017-10-26T21:48:55.728Z,101562.54
2017-10-26T21:51:23.352Z,101552.77
2017-10-26T21:53:50.998Z,101549.42
2017-10-26T21:56:18.635Z,101543.32
2017-10-26T21:58:46.324Z,101539.23
2017-10-26T22:01:13.943Z,101536.66
2017-10-26T22:03:41.595Z,101536.24
2017-10-26T22:06:09.234Z,101535.18
2017-10-26T22:08:36.894Z,101530.14
2017-10-26T22:11:04.535Z,101531.95
2017-10-26T22:13:32.180Z,101527.12
2017-10-26T22:15:59.805Z,101523.91
2017-10-26T22:18:27.397Z,101520.93
2017-10-26T22:20:55.035Z,101522.11
2017-10-26T22:23:22.662Z,101522.57
2017-10-26T22:25:50.260Z,101521.13
2017-10-26T22:28:17.889Z,101519.93
2017-10-26T22:30:45.584Z,101508.06
2017-10-26T22:33:13.231Z,101512.44
2017-10-26T22:35:40.885Z,101507.24
2017-10-26T22:38:08.505Z,101511.63
2017-10-26T22:40:36.110Z,101514.69
2017-10-26T22:43:03.733Z,101514.05
2017-10-26T22:45:31.369Z,101508.34
2017-10-26T22:47:58.986Z,101515.33
2017-10-26T22:50:26.639Z,101514.10
2017-10-26T22:52:54.270Z,101511.67
2017-10-26T22:55:21.909Z,101513.44
2017-10-26T22:57:49.599Z,101516.59
2017-10-26T23:00:17.284Z,101505.43
2017-10-26T23:02:44.987Z,101508.33
2017-10-26T23:05:12.569Z,101502.89
2017-10-26T23:07:40.175Z,101498.58
2017-10-26T23:10:07.774Z,101502.25
2017-10-26T23:12:35.402Z,101498.58
2017-10-26T23:15:03.001Z,101503.87
2017-10-26T23:17:30.720Z,101511.63
2017-10-26T23:19:58.307Z,101509.59
2017-10-26T23:22:25.960Z,101506.70
2017-10-26T23:24:53.587Z,101504.16
2017-10-26T23:27:21.253Z,101500.91
2017-10-26T23:29:48.934Z,101500.04
2017-10-26T23:32:16.579Z,101498.33
2017-10-26T23:34:44.196Z,101492.41
2017-10-26T23:37:12.878Z,101493.95
2017-10-26T23:39:40.590Z,101495.34
2017-10-26T23:42:08.177Z,101495.53
2017-10-26T23:44:35.884Z,101491.30
2017-10-26T23:47:03.466Z,101487.16
2017-10-26T23:49:31.142Z,101489.58
2017-10-26T23:51:58.717Z,101479.34
2017-10-26T23:54:26.407Z,101494.59
2017-10-26T23:56:54.002Z,101494.47
2017-10-26T23:59:21.686Z,101490.04
